Time;durP1;ratioP1;P1;durP2;ratioP2;P2;SDS_P1;SDS_P2;PMS_P1;PMS_P2;Temp;Humidity;BMP_temperature;BMP_pressure;BME280_temperature;BME280_humidity;BME280_pressure;Samples;Min_cycle;Max_cycle;Signal;HPM_P1;HPM_P2
2021/07/25 00:02:18;;;;;;;;;0.00;0.00;;;;;27.38;65.89;98216.75;6276463;22;8892;-74
2021/07/25 00:04:47;;;;;;;;;0.00;0.00;;;;;27.39;66.05;98221.00;6276487;22;8798;-74
2021/07/25 00:07:16;;;;;;;;;0.00;0.00;;;;;27.37;65.90;98217.91;6276464;22;8801;-74
2021/07/25 00:09:44;;;;;;;;;0.00;0.00;;;;;27.41;65.77;98230.28;6276700;22;8817;-74
2021/07/25 00:12:13;;;;;;;;;0.00;0.00;;;;;27.41;65.88;98235.69;6276677;22;8779;-74
2021/07/25 00:14:41;;;;;;;;;0.00;0.00;;;;;27.39;65.66;98239.97;6276026;22;8794;-73
2021/07/25 00:17:10;;;;;;;;;0.00;0.00;;;;;27.40;65.76;98249.63;6276301;22;8779;-72
2021/07/25 00:19:39;;;;;;;;;0.00;0.00;;;;;27.41;65.66;98260.06;6276415;22;8892;-74
2021/07/25 00:22:08;;;;;;;;;0.00;0.00;;;;;27.36;65.99;98254.28;6276381;22;8795;-73
2021/07/25 00:24:38;;;;;;;;;0.00;0.00;;;;;27.36;65.82;98257.75;6276253;22;8794;-74
2021/07/25 00:27:07;;;;;;;;;0.00;0.00;;;;;27.42;66.01;98271.69;6276239;22;8802;-74
2021/07/25 00:29:35;;;;;;;;;0.00;0.00;;;;;27.44;65.76;98269.34;6276153;22;8860;-73
2021/07/25 00:32:08;;;;;;;;;0.00;0.00;;;;;27.38;65.65;98268.97;6276255;22;8802;-74
2021/07/25 00:34:37;;;;;;;;;0.25;0.25;;;;;27.46;65.84;98281.34;6276048;22;8806;-73
2021/07/25 00:37:05;;;;;;;;;0.00;0.00;;;;;27.46;65.79;98280.56;6276208;22;8798;-73
2021/07/25 00:39:34;;;;;;;;;0.00;0.00;;;;;27.46;65.97;98288.69;6249519;22;8841;-73
2021/07/25 00:42:04;;;;;;;;;0.00;0.00;;;;;27.51;65.65;98299.91;6276072;22;9592;-73
2021/07/25 00:44:34;;;;;;;;;0.00;0.00;;;;;27.52;65.70;98304.16;6276424;22;8864;-73
2021/07/25 00:47:03;;;;;;;;;0.00;0.00;;;;;27.53;65.78;98307.66;6276008;22;8795;-73
2021/07/25 00:49:31;;;;;;;;;0.00;0.00;;;;;27.52;65.90;98308.81;6275999;22;8802;-73
2021/07/25 00:52:00;;;;;;;;;0.00;0.00;;;;;27.51;66.04;98307.25;6276308;22;8868;-73
2021/07/25 00:54:28;;;;;;;;;0.00;0.00;;;;;27.50;66.08;98306.50;6275588;22;8811;-73
2021/07/25 00:56:57;;;;;;;;;0.00;0.00;;;;;27.54;66.17;98309.97;6249488;22;8786;-73
2021/07/25 00:59:26;;;;;;;;;0.00;0.00;;;;;27.55;66.13;98300.69;6276802;22;8802;-73
2021/07/25 01:01:54;;;;;;;;;0.00;0.00;;;;;27.56;66.09;98309.59;6275485;22;8822;-74
2021/07/25 01:04:49;;;;;;;;;0.00;0.00;;;;;27.56;66.18;98309.59;6275834;22;8787;-73
2021/07/25 01:07:45;;;;;;;;;0.00;0.00;;;;;27.54;66.24;98303.78;6275531;22;8783;-74
2021/07/25 01:10:27;;;;;;;;;0.00;0.00;;;;;27.58;66.08;98315.38;6275648;22;8868;-74
2021/07/25 01:13:04;;;;;;;;;0.00;0.00;;;;;27.59;66.33;98308.81;6275419;22;8791;-75
2021/07/25 01:15:34;;;;;;;;;0.00;0.00;;;;;27.60;66.19;98308.44;6275042;22;8803;-75
2021/07/25 01:18:03;;;;;;;;;0.75;0.75;;;;;27.59;66.35;98311.50;6274946;22;8786;-74
2021/07/25 01:20:32;;;;;;;;;0.00;0.00;;;;;27.60;66.16;98313.09;6275718;22;8806;-74
2021/07/25 01:23:01;;;;;;;;;0.00;0.00;;;;;27.65;66.48;98309.22;6273769;22;8797;-73
2021/07/25 01:25:30;;;;;;;;;0.00;0.00;;;;;27.64;66.05;98311.13;6274063;22;9492;-73
2021/07/25 01:28:19;;;;;;;;;0.00;0.00;;;;;27.66;66.11;98310.75;6274200;22;8807;-73
2021/07/25 01:30:54;;;;;;;;;0.00;0.00;;;;;27.68;65.99;98309.19;6274579;22;8961;-73
2021/07/25 01:33:33;;;;;;;;;0.00;0.00;;;;;27.69;65.89;98313.47;6274839;22;8875;-73
2021/07/25 01:36:02;;;;;;;;;0.00;0.00;;;;;27.71;65.61;98315.78;6248542;22;8794;-73
2021/07/25 01:38:32;;;;;;;;;0.00;0.00;;;;;27.71;65.53;98321.97;6275328;22;8778;-74
2021/07/25 01:41:13;;;;;;;;;0.00;0.00;;;;;27.69;65.20;98318.88;6274457;22;9551;-72
2021/07/25 01:43:45;;;;;;;;;0.00;0.00;;;;;27.73;65.27;98322.34;6274417;22;8799;-72
2021/07/25 01:46:16;;;;;;;;;0.00;0.00;;;;;27.73;65.28;98327.78;6275744;22;8864;-72
2021/07/25 01:48:45;;;;;;;;;0.25;0.25;;;;;27.73;65.02;98333.19;6274821;22;8889;-73
2021/07/25 01:51:15;;;;;;;;;0.75;0.75;;;;;27.71;65.07;98332.81;6274915;22;8791;-73
2021/07/25 01:53:43;;;;;;;;;0.00;0.00;;;;;27.69;65.40;98327.00;6275474;22;8787;-73
2021/07/25 01:56:12;;;;;;;;;0.00;0.00;;;;;27.69;65.52;98329.72;6275372;22;8783;-73
2021/07/25 01:58:40;;;;;;;;;0.25;0.25;;;;;27.67;65.41;98342.09;6275380;22;8877;-73
2021/07/25 02:01:10;;;;;;;;;0.00;0.00;;;;;27.61;65.67;98334.38;6273848;22;8814;-73
2021/07/25 02:03:39;;;;;;;;;0.00;0.00;;;;;27.55;66.11;98346.75;6275106;22;8810;-73
2021/07/25 02:06:07;;;;;;;;;0.00;0.00;;;;;27.43;66.01;98330.09;6273844;22;8779;-74
2021/07/25 02:08:36;;;;;;;;;0.00;0.00;;;;;27.37;66.66;98337.84;6275287;22;9642;-73
2021/07/25 02:11:08;;;;;;;;;0.75;0.75;;;;;27.31;66.51;98347.53;6275260;22;9528;-72
2021/07/25 02:13:36;;;;;;;;;0.50;0.50;;;;;27.25;66.52;98349.09;6273788;22;8869;-73
2021/07/25 02:16:05;;;;;;;;;0.00;0.00;;;;;27.19;66.64;98348.72;6273478;22;8864;-71
2021/07/25 02:18:34;;;;;;;;;0.25;0.25;;;;;27.16;66.93;98354.13;6273007;22;8814;-73
2021/07/25 02:21:02;;;;;;;;;0.00;0.00;;;;;27.11;67.50;98352.56;6274933;22;8787;-73
2021/07/25 02:23:32;;;;;;;;;0.00;0.00;;;;;27.03;67.08;98344.84;6274661;22;8787;-72
2021/07/25 02:26:01;;;;;;;;;0.00;0.00;;;;;27.01;67.07;98350.63;6274563;22;8779;-72
2021/07/25 02:28:30;;;;;;;;;0.00;0.00;;;;;26.99;67.36;98350.25;6273355;22;8880;-72
2021/07/25 02:30:59;;;;;;;;;0.00;0.00;;;;;26.98;67.50;98340.56;6274154;22;8846;-72
2021/07/25 02:33:27;;;;;;;;;1.00;1.00;;;;;26.98;67.42;98343.28;6274578;22;8775;-74
2021/07/25 02:35:56;;;;;;;;;0.00;0.00;;;;;26.91;67.03;98335.91;6274431;22;8819;-73
2021/07/25 02:38:25;;;;;;;;;0.00;0.00;;;;;26.95;67.32;98339.38;6275535;22;8795;-73
2021/07/25 02:40:53;;;;;;;;;0.25;0.25;;;;;26.94;67.43;98337.84;6277799;22;8807;-73
2021/07/25 02:43:22;;;;;;;;;0.00;0.00;;;;;26.94;67.75;98345.19;6277028;22;9593;-73
2021/07/25 02:45:51;;;;;;;;;0.00;0.00;;;;;26.88;67.92;98338.59;6276543;22;8876;-74
2021/07/25 02:48:19;;;;;;;;;0.00;0.00;;;;;26.93;67.51;98339.00;6276077;22;9652;-74
2021/07/25 02:50:48;;;;;;;;;0.00;0.00;;;;;26.96;67.04;98342.88;6277078;22;8794;-74
2021/07/25 02:53:16;;;;;;;;;1.00;1.00;;;;;27.00;67.24;98345.59;6277282;22;8795;-74
2021/07/25 02:55:45;;;;;;;;;0.75;0.75;;;;;27.04;67.48;98341.75;6277737;22;9652;-74
2021/07/25 02:58:13;;;;;;;;;0.00;0.00;;;;;27.12;67.39;98339.81;6277477;22;8798;-73
2021/07/25 03:00:42;;;;;;;;;0.00;0.00;;;;;27.18;66.67;98341.75;6277593;22;8799;-73
2021/07/25 03:03:11;;;;;;;;;0.50;0.50;;;;;27.24;66.48;98353.75;6277661;22;8809;-74
2021/07/25 03:05:40;;;;;;;;;0.00;0.00;;;;;27.27;65.56;98344.84;6277237;22;8885;-74
2021/07/25 03:08:09;;;;;;;;;0.00;0.00;;;;;27.34;66.01;98344.03;6275677;22;8803;-74
2021/07/25 03:10:42;;;;;;;;;0.00;0.00;;;;;27.41;65.89;98345.97;6275306;22;8787;-74
2021/07/25 03:13:10;;;;;;;;;1.00;1.00;;;;;27.38;66.25;98335.91;6275879;22;8795;-74
2021/07/25 03:15:39;;;;;;;;;0.00;0.00;;;;;27.51;66.49;98359.50;6276536;22;8779;-74
2021/07/25 03:18:08;;;;;;;;;0.25;0.25;;;;;27.53;66.81;98351.78;6276510;22;8884;-74
2021/07/25 03:20:36;;;;;;;;;0.00;0.00;;;;;27.55;66.45;98349.44;6276923;22;8799;-73
2021/07/25 03:23:05;;;;;;;;;0.75;0.75;;;;;27.55;66.23;98357.56;6250823;22;8779;-74
2021/07/25 03:25:33;;;;;;;;;0.50;0.50;;;;;27.57;66.64;98360.66;6276446;22;8849;-74
2021/07/25 03:28:02;;;;;;;;;0.00;0.00;;;;;27.54;66.79;98357.97;6275143;22;8860;-74
2021/07/25 03:30:30;;;;;;;;;0.00;0.00;;;;;27.56;66.92;98350.22;6276187;22;8787;-74
2021/07/25 03:32:59;;;;;;;;;0.00;0.00;;;;;27.62;66.92;98362.25;6275726;22;8879;-74
2021/07/25 03:35:28;;;;;;;;;0.00;0.00;;;;;27.61;66.03;98366.13;6276326;22;8787;-72
2021/07/25 03:37:56;;;;;;;;;0.00;0.00;;;;;27.64;66.27;98368.03;6276362;22;8884;-73
2021/07/25 03:40:26;;;;;;;;;0.00;0.00;;;;;27.66;65.80;98368.44;6276412;22;8807;-74
2021/07/25 03:42:54;;;;;;;;;0.00;0.00;;;;;27.66;66.25;98368.44;6276436;22;9620;-74
2021/07/25 03:45:24;;;;;;;;;0.25;0.25;;;;;27.68;66.55;98365.34;6276464;22;8787;-74
2021/07/25 03:47:53;;;;;;;;;3.00;1.75;;;;;27.70;66.46;98365.72;6274774;22;8819;-73
2021/07/25 03:50:22;;;;;;;;;1.75;1.00;;;;;27.68;66.53;98360.69;6275211;22;8827;-73
2021/07/25 03:52:51;;;;;;;;;0.00;0.00;;;;;27.69;66.60;98361.47;6276342;22;8823;-74
2021/07/25 03:55:20;;;;;;;;;0.00;0.00;;;;;27.65;66.05;98358.75;6276837;22;8822;-74
2021/07/25 03:57:48;;;;;;;;;0.00;0.00;;;;;27.68;66.01;98354.50;6276268;22;8787;-74
2021/07/25 04:00:17;;;;;;;;;2.00;0.00;;;;;27.73;66.23;98365.72;6274728;22;8924;-76
2021/07/25 04:02:46;;;;;;;;;0.50;0.50;;;;;27.76;66.35;98364.94;6275786;22;8795;-75
2021/07/25 04:05:15;;;;;;;;;1.00;1.00;;;;;27.80;66.44;98367.63;6275793;22;8807;-73
2021/07/25 04:07:43;;;;;;;;;0.00;0.00;;;;;27.80;66.40;98360.28;6275995;22;8790;-73
2021/07/25 04:10:12;;;;;;;;;0.25;0.25;;;;;27.80;66.61;98352.16;6275813;22;8886;-74
2021/07/25 04:12:41;;;;;;;;;0.00;0.00;;;;;27.79;66.89;98349.81;6274592;22;9645;-73
2021/07/25 04:15:10;;;;;;;;;1.00;1.00;;;;;27.81;67.09;98350.22;6274907;22;9604;-74
2021/07/25 04:17:39;;;;;;;;;0.75;0.75;;;;;27.86;67.32;98357.94;6274401;22;8811;-73
2021/07/25 04:20:09;;;;;;;;;0.75;0.75;;;;;27.86;66.89;98353.28;6274496;22;8791;-73
2021/07/25 04:22:38;;;;;;;;;1.00;1.00;;;;;27.88;66.80;98361.03;6274687;22;9492;-72
2021/07/25 04:25:08;;;;;;;;;0.75;0.75;;;;;27.87;67.20;98356.78;6274566;22;8802;-72
2021/07/25 04:27:37;;;;;;;;;0.75;0.75;;;;;27.86;67.50;98356.00;6274363;22;8884;-72
2021/07/25 04:30:06;;;;;;;;;0.75;0.75;;;;;27.86;67.27;98350.59;6274299;22;8819;-72
2021/07/25 04:32:35;;;;;;;;;0.50;0.50;;;;;27.84;67.42;98341.28;6274775;22;8791;-72
2021/07/25 04:35:04;;;;;;;;;1.00;1.00;;;;;27.87;67.88;98340.50;6274688;22;8790;-73
2021/07/25 04:37:34;;;;;;;;;1.25;1.25;;;;;27.88;68.04;98326.56;6274698;22;8782;-73
2021/07/25 04:40:03;;;;;;;;;0.00;0.00;;;;;27.89;68.12;98330.81;6275536;22;8805;-73
2021/07/25 04:42:35;;;;;;;;;1.00;1.00;;;;;27.93;68.04;98330.81;6274791;22;9613;-73
2021/07/25 04:45:06;;;;;;;;;0.25;0.25;;;;;27.96;67.97;98330.03;6276172;22;8814;-73
2021/07/25 04:47:44;;;;;;;;;0.00;0.00;;;;;28.01;68.32;98328.84;6275563;22;8790;-73
2021/07/25 04:50:19;;;;;;;;;0.50;0.50;;;;;28.06;67.78;98331.94;6275747;22;8787;-73
2021/07/25 04:52:51;;;;;;;;;0.00;0.00;;;;;28.11;67.62;98330.75;6275504;22;8786;-73
2021/07/25 04:55:24;;;;;;;;;1.00;1.00;;;;;28.16;66.97;98324.94;6273544;22;8814;-73
2021/07/25 04:58:06;;;;;;;;;1.00;1.00;;;;;28.20;67.14;98322.97;6274135;22;8891;-75
2021/07/25 05:00:42;;;;;;;;;0.00;0.00;;;;;28.27;67.72;98325.69;6273977;22;8803;-74
2021/07/25 05:03:13;;;;;;;;;0.50;0.50;;;;;28.34;67.51;98328.38;6274218;22;8870;-73
2021/07/25 05:05:42;;;;;;;;;1.00;1.00;;;;;28.35;67.31;98310.94;6273973;22;8791;-74
2021/07/25 05:08:12;;;;;;;;;0.00;0.00;;;;;28.42;66.96;98321.75;6274360;22;8779;-73
2021/07/25 05:10:42;;;;;;;;;0.75;0.75;;;;;28.44;67.43;98316.69;6273883;22;8851;-74
2021/07/25 05:13:18;;;;;;;;;0.00;0.00;;;;;28.57;66.78;98322.44;6273848;22;8783;-72
2021/07/25 05:15:47;;;;;;;;;0.75;0.75;;;;;28.63;66.51;98317.34;6274083;22;8795;-73
2021/07/25 05:18:34;;;;;;;;;0.00;0.00;;;;;28.72;66.66;98321.16;6274849;22;8771;-73
2021/07/25 05:21:21;;;;;;;;;1.75;1.75;;;;;28.80;66.91;98311.03;6273759;22;8798;-72
2021/07/25 05:23:54;;;;;;;;;1.00;1.00;;;;;28.88;66.55;98307.13;6272374;22;9673;-72
2021/07/25 05:26:26;;;;;;;;;0.75;0.75;;;;;28.99;66.35;98301.59;6273662;22;8803;-74
2021/07/25 05:28:57;;;;;;;;;0.25;0.25;;;;;29.10;65.86;98296.88;6274014;22;8794;-73
2021/07/25 05:31:32;;;;;;;;;0.25;0.25;;;;;29.19;65.85;98294.47;6273870;22;8791;-73
2021/07/25 05:34:02;;;;;;;;;1.75;1.75;;;;;29.29;64.82;98292.81;6249013;22;8817;-76
2021/07/25 05:36:31;;;;;;;;;0.75;0.75;;;;;29.34;64.98;98297.81;6275232;22;8794;-76
2021/07/25 05:39:00;;;;;;;;;0.60;0.60;;;;;29.34;65.16;98284.25;6275298;22;8880;-74
2021/07/25 05:41:28;;;;;;;;;1.40;1.40;;;;;29.40;64.95;98291.56;6274806;22;9528;-72
2021/07/25 05:43:57;;;;;;;;;0.80;0.80;;;;;29.42;64.83;98288.47;6274812;22;8775;-75
2021/07/25 05:46:26;;;;;;;;;0.60;0.60;;;;;29.38;64.98;98288.47;6274691;22;8795;-74
2021/07/25 05:48:55;;;;;;;;;0.60;0.60;;;;;29.39;64.94;98284.56;6274455;22;8779;-72
2021/07/25 05:51:24;;;;;;;;;0.50;0.50;;;;;29.42;64.88;98285.75;6273414;22;8850;-76
2021/07/25 05:53:52;;;;;;;;;0.80;0.80;;;;;29.44;64.64;98284.16;6275501;22;8774;-77
2021/07/25 05:56:21;;;;;;;;;0.40;0.40;;;;;29.45;64.44;98279.50;6276565;22;8799;-77
2021/07/25 05:58:49;;;;;;;;;0.75;0.75;;;;;29.46;64.32;98279.09;6279272;22;8811;-76
2021/07/25 06:01:18;;;;;;;;;0.20;0.20;;;;;29.49;64.08;98274.81;6274895;22;8815;-74
2021/07/25 06:03:47;;;;;;;;;0.20;0.20;;;;;29.51;64.12;98275.16;6274725;22;8791;-72
2021/07/25 06:06:16;;;;;;;;;1.00;1.00;;;;;29.56;64.00;98268.53;6274741;22;9508;-73
2021/07/25 06:08:44;;;;;;;;;0.40;0.40;;;;;29.58;64.01;98258.78;6275412;22;8779;-73
2021/07/25 06:11:21;;;;;;;;;1.60;1.60;;;;;29.63;64.45;98252.91;6275131;22;8791;-73
2021/07/25 06:13:51;;;;;;;;;1.00;1.00;;;;;29.68;63.94;98248.97;6277770;22;8803;-73
2021/07/25 06:16:20;;;;;;;;;1.00;1.00;;;;;29.75;63.58;98248.91;6277467;22;8799;-73
2021/07/25 06:18:49;;;;;;;;;1.00;1.00;;;;;29.82;64.02;98246.09;6277706;22;8775;-73
2021/07/25 06:21:18;;;;;;;;;0.80;0.80;;;;;29.85;63.52;98240.59;6277396;22;9512;-73
2021/07/25 06:23:48;;;;;;;;;1.00;1.00;;;;;29.91;63.52;98229.25;6277480;22;8801;-73
2021/07/25 06:26:17;;;;;;;;;1.75;1.75;;;;;29.95;63.56;98225.31;6277378;22;8787;-73
2021/07/25 06:28:46;;;;;;;;;1.00;1.00;;;;;30.04;63.23;98230.28;6277664;22;8806;-74
2021/07/25 06:31:14;;;;;;;;;1.00;1.00;;;;;30.11;63.10;98219.31;6277834;22;9508;-73
2021/07/25 06:33:43;;;;;;;;;0.80;0.80;;;;;30.22;62.81;98219.16;6277420;22;8783;-74
2021/07/25 06:36:13;;;;;;;;;3.40;3.40;;;;;30.29;63.17;98208.94;6277240;22;8779;-73
2021/07/25 06:38:42;;;;;;;;;1.00;1.00;;;;;30.46;62.60;98218.78;6277900;22;8876;-73
2021/07/25 06:41:11;;;;;;;;;0.00;0.00;;;;;30.57;62.16;98213.19;6277447;22;8810;-73
2021/07/25 06:43:39;;;;;;;;;0.80;0.80;;;;;30.67;61.70;98214.22;6278133;22;8864;-73
2021/07/25 06:46:11;;;;;;;;;1.40;1.40;;;;;30.73;61.87;98199.72;6277578;22;8894;-73
2021/07/25 06:48:39;;;;;;;;;1.00;1.00;;;;;30.76;61.63;98188.00;6277789;22;8852;-73
2021/07/25 06:51:08;;;;;;;;;2.40;2.40;;;;;30.79;61.27;98200.81;6277488;22;8787;-73
2021/07/25 06:53:37;;;;;;;;;0.80;0.80;;;;;30.76;61.29;98196.19;6277134;22;8795;-74
2021/07/25 06:56:06;;;;;;;;;1.80;1.80;;;;;30.75;61.35;98193.88;6277404;22;8786;-73
2021/07/25 06:58:35;;;;;;;;;1.00;1.00;;;;;30.74;61.50;98195.06;6277221;22;8801;-72
2021/07/25 07:01:04;;;;;;;;;0.80;0.80;;;;;30.71;61.18;98187.72;6276801;22;9537;-73
2021/07/25 07:03:33;;;;;;;;;0.20;0.20;;;;;30.62;61.61;98171.16;6277081;22;8886;-73
2021/07/25 07:06:09;;;;;;;;;0.60;0.60;;;;;30.69;61.16;98190.09;6276788;22;8771;-73
2021/07/25 07:08:37;;;;;;;;;1.20;1.20;;;;;30.68;61.48;98188.53;6277398;22;8868;-73
2021/07/25 07:11:06;;;;;;;;;2.00;2.00;;;;;30.65;61.41;98181.97;6276885;22;8786;-73
2021/07/25 07:13:34;;;;;;;;;1.00;1.00;;;;;30.65;61.75;98181.22;6275281;22;8807;-74
2021/07/25 07:16:04;;;;;;;;;1.60;1.60;;;;;30.66;61.74;98178.06;6273829;22;8790;-76
2021/07/25 07:18:32;;;;;;;;;2.00;2.00;;;;;30.65;61.66;98170.31;6275192;22;8893;-73
2021/07/25 07:21:01;;;;;;;;;1.20;1.20;;;;;30.69;61.79;98174.53;6275214;22;8811;-74
2021/07/25 07:23:30;;;;;;;;;0.00;0.00;;;;;30.73;61.24;98180.69;6274352;22;8902;-74
2021/07/25 07:25:59;;;;;;;;;1.00;1.00;;;;;30.75;61.21;98180.25;6274867;22;8775;-75
2021/07/25 07:28:27;;;;;;;;;2.00;2.00;;;;;30.76;61.17;98177.13;6275400;22;8807;-76
2021/07/25 07:30:56;;;;;;;;;1.60;1.60;;;;;30.77;61.08;98170.50;6275614;22;8819;-73
2021/07/25 07:33:25;;;;;;;;;0.80;0.80;;;;;30.80;61.59;98166.16;6275740;22;8833;-75
2021/07/25 07:35:54;;;;;;;;;2.00;2.00;;;;;30.81;60.99;98160.31;6276187;22;8864;-73
2021/07/25 07:38:22;;;;;;;;;1.00;1.00;;;;;30.78;61.38;98152.19;6280316;22;8798;-77
2021/07/25 07:40:51;;;;;;;;;0.00;0.00;;;;;30.86;61.12;98153.63;6275718;22;8819;-76
2021/07/25 07:43:22;;;;;;;;;1.00;1.00;;;;;30.94;61.27;98159.69;6275465;22;8783;-77
2021/07/25 07:45:52;;;;;;;;;1.80;1.80;;;;;30.99;61.50;98154.53;6249530;22;8803;-76
2021/07/25 07:48:21;;;;;;;;;1.00;1.00;;;;;31.04;60.99;98143.16;6275894;22;8899;-75
2021/07/25 07:50:50;;;;;;;;;0.40;0.40;;;;;31.13;60.92;98143.41;6275088;22;8802;-73
2021/07/25 07:53:20;;;;;;;;;1.20;1.20;;;;;31.19;61.21;98132.03;6274744;22;8782;-74
2021/07/25 07:55:49;;;;;;;;;0.00;0.00;;;;;31.30;60.83;98138.00;6276880;22;8868;-78
2021/07/25 07:58:17;;;;;;;;;0.60;0.60;;;;;31.39;60.31;98136.25;6251623;22;9500;-73
2021/07/25 08:00:46;;;;;;;;;1.40;1.40;;;;;31.45;59.77;98131.84;6276767;22;8806;-73
2021/07/25 08:03:15;;;;;;;;;0.80;0.80;;;;;31.55;59.90;98126.59;6276202;22;8901;-72
2021/07/25 08:05:45;;;;;;;;;1.00;1.00;;;;;31.61;60.00;98124.91;6275987;22;8779;-73
2021/07/25 08:08:13;;;;;;;;;0.40;0.40;;;;;31.72;59.91;98117.31;6276756;22;8798;-72
2021/07/25 08:10:42;;;;;;;;;0.60;0.60;;;;;31.83;59.81;98114.34;6249850;22;8853;-72
2021/07/25 08:13:10;;;;;;;;;1.00;1.00;;;;;31.95;59.26;98110.94;6276354;22;8786;-72
2021/07/25 08:15:39;;;;;;;;;1.00;1.00;;;;;32.09;59.27;98110.63;6276301;22;8807;-72
2021/07/25 08:18:08;;;;;;;;;1.00;1.00;;;;;32.24;58.72;98103.66;6276251;22;8815;-72
2021/07/25 08:20:36;;;;;;;;;1.00;1.00;;;;;32.37;58.47;98104.50;6276349;22;8803;-73
2021/07/25 08:23:04;;;;;;;;;0.40;0.40;;;;;32.45;57.92;98093.41;6276223;22;8783;-72
2021/07/25 08:25:33;;;;;;;;;0.80;0.80;;;;;32.55;57.70;98098.56;6276269;22;8783;-72
2021/07/25 08:28:02;;;;;;;;;0.60;0.60;;;;;32.62;57.65;98092.16;6276764;22;9488;-72
2021/07/25 08:30:32;;;;;;;;;2.20;2.20;;;;;32.67;57.78;98088.91;6276502;22;8803;-73
2021/07/25 08:33:02;;;;;;;;;1.00;1.00;;;;;32.70;57.40;98082.59;6276411;22;8802;-73
2021/07/25 08:35:30;;;;;;;;;0.00;0.00;;;;;32.74;57.30;98088.72;6276280;22;8791;-72
2021/07/25 08:37:59;;;;;;;;;1.60;1.60;;;;;32.75;57.38;98090.25;6276246;22;8802;-72
2021/07/25 08:40:31;;;;;;;;;0.60;0.60;;;;;32.78;57.00;98092.16;6276324;22;8861;-72
2021/07/25 08:43:10;;;;;;;;;0.20;0.20;;;;;32.77;57.33;98085.16;6276287;22;8788;-72
2021/07/25 08:45:41;;;;;;;;;1.00;1.00;;;;;32.77;57.04;98090.63;6276438;22;8798;-72
2021/07/25 08:48:16;;;;;;;;;2.00;2.00;;;;;32.72;56.91;98082.91;6276396;22;8929;-72
2021/07/25 08:51:05;;;;;;;;;0.80;0.80;;;;;32.66;57.42;98084.63;6276051;22;8864;-72
2021/07/25 08:53:36;;;;;;;;;0.00;0.00;;;;;32.52;57.41;98085.78;6275951;22;9650;-72
2021/07/25 08:56:05;;;;;;;;;0.20;0.20;;;;;32.49;57.66;98083.94;6276386;22;8779;-73
2021/07/25 08:58:38;;;;;;;;;0.60;0.60;;;;;32.44;57.13;98087.19;6275970;22;8802;-72
2021/07/25 09:01:10;;;;;;;;;1.20;1.20;;;;;32.36;57.60;98083.09;6275823;22;8814;-72
2021/07/25 09:03:39;;;;;;;;;0.80;0.80;;;;;32.29;57.92;98086.00;6275812;22;8799;-72
2021/07/25 09:06:11;;;;;;;;;1.00;1.00;;;;;32.21;57.94;98090.06;6275924;22;8790;-72
2021/07/25 09:08:43;;;;;;;;;1.00;1.00;;;;;32.12;58.28;98093.41;6276161;22;8811;-72
2021/07/25 09:11:14;;;;;;;;;2.00;2.00;;;;;32.06;58.52;98095.88;6276376;22;8837;-72
2021/07/25 09:13:45;;;;;;;;;1.00;1.00;;;;;31.98;58.67;98102.69;6275807;22;8787;-72
2021/07/25 09:16:15;;;;;;;;;1.00;1.00;;;;;31.87;58.23;98102.16;6275709;22;8906;-73
2021/07/25 09:18:44;;;;;;;;;0.20;0.20;;;;;31.81;58.11;98103.84;6275724;22;8821;-72
2021/07/25 09:21:12;;;;;;;;;1.20;1.20;;;;;31.76;58.19;98105.13;6249465;22;8856;-72
2021/07/25 09:23:41;;;;;;;;;1.00;1.00;;;;;31.71;58.56;98107.59;6249147;22;8819;-72
2021/07/25 09:26:09;;;;;;;;;1.00;1.00;;;;;31.67;58.91;98107.63;6275701;22;8778;-72
2021/07/25 09:28:38;;;;;;;;;0.00;0.00;;;;;31.63;58.24;98111.63;6276063;22;8823;-72
2021/07/25 09:31:15;;;;;;;;;0.80;0.80;;;;;31.57;58.53;98114.09;6276012;22;8791;-72
2021/07/25 09:33:46;;;;;;;;;1.60;1.60;;;;;31.56;58.84;98111.78;6275600;22;8883;-72
2021/07/25 09:36:22;;;;;;;;;0.60;0.60;;;;;31.54;58.94;98111.44;6275973;22;8791;-72
2021/07/25 09:38:55;;;;;;;;;0.60;0.60;;;;;31.51;59.04;98110.31;6275598;22;8879;-72
2021/07/25 09:41:26;;;;;;;;;0.60;0.60;;;;;31.50;58.88;98111.50;6275624;22;8775;-72
2021/07/25 09:44:04;;;;;;;;;0.80;0.80;;;;;31.48;59.16;98106.47;6275914;22;8799;-72
2021/07/25 09:46:52;;;;;;;;;1.60;1.60;;;;;31.46;58.79;98097.94;6275213;22;8790;-72
2021/07/25 09:49:20;;;;;;;;;1.00;1.00;;;;;31.42;58.94;98096.50;6249201;22;8791;-72
2021/07/25 09:51:49;;;;;;;;;1.20;1.20;;;;;31.42;58.98;98105.44;6275428;22;8790;-72
2021/07/25 09:54:25;;;;;;;;;1.00;1.00;;;;;31.40;58.87;98110.53;6275598;22;8802;-72
2021/07/25 09:57:11;;;;;;;;;1.40;1.40;;;;;31.36;59.22;98109.84;6275599;22;8841;-72
2021/07/25 09:59:40;;;;;;;;;2.00;2.00;;;;;31.35;59.44;98113.00;6280055;22;8856;-73
2021/07/25 10:02:36;;;;;;;;;1.00;1.00;;;;;31.30;58.98;98116.97;6279851;22;8806;-73
2021/07/25 10:05:14;;;;;;;;;1.80;1.80;;;;;31.26;59.49;98119.00;6276456;22;9543;-72
2021/07/25 10:07:48;;;;;;;;;0.80;0.80;;;;;31.20;59.27;98119.94;6275842;22;8787;-73
2021/07/25 10:10:18;;;;;;;;;0.00;0.00;;;;;31.17;59.49;98113.38;6276358;22;8787;-72
2021/07/25 10:12:47;;;;;;;;;0.80;0.80;;;;;31.14;59.66;98114.97;6275512;22;8802;-72
2021/07/25 10:15:17;;;;;;;;;0.60;0.60;;;;;31.11;60.03;98123.19;6276071;22;8798;-72
2021/07/25 10:17:50;;;;;;;;;0.80;0.80;;;;;31.06;59.45;98121.72;6275723;22;8782;-72
2021/07/25 10:20:21;;;;;;;;;1.00;1.00;;;;;31.00;59.57;98123.41;6275499;22;8799;-72
2021/07/25 10:22:53;;;;;;;;;1.00;1.00;;;;;30.99;59.61;98130.03;6275707;22;8783;-72
2021/07/25 10:25:24;;;;;;;;;0.80;0.80;;;;;30.96;60.15;98130.09;6275419;22;8795;-72
2021/07/25 10:27:57;;;;;;;;;0.80;0.80;;;;;30.90;60.09;98131.75;6275536;22;8787;-72
2021/07/25 10:30:28;;;;;;;;;1.00;1.00;;;;;30.92;59.89;98135.59;6275946;22;8799;-72
2021/07/25 10:32:58;;;;;;;;;1.00;1.00;;;;;30.87;59.97;98138.81;6275320;22;8806;-72
2021/07/25 10:35:28;;;;;;;;;1.40;1.40;;;;;30.90;60.15;98140.69;6275357;22;8784;-73
2021/07/25 10:38:01;;;;;;;;;1.00;1.00;;;;;30.91;60.26;98152.38;6275205;22;8795;-72
2021/07/25 10:40:31;;;;;;;;;1.00;1.00;;;;;30.87;60.34;98146.22;6275298;22;9598;-72
2021/07/25 10:43:00;;;;;;;;;0.40;0.40;;;;;30.86;60.28;98153.63;6275336;22;8864;-72
2021/07/25 10:45:28;;;;;;;;;0.00;0.00;;;;;30.84;60.37;98150.53;6275668;22;8811;-72
2021/07/25 10:48:13;;;;;;;;;1.00;1.00;;;;;30.84;60.48;98147.81;6248734;22;8886;-72
2021/07/25 10:50:43;;;;;;;;;0.00;0.00;;;;;30.82;60.23;98150.19;6275119;22;8815;-72
2021/07/25 10:53:25;;;;;;;;;0.40;0.40;;;;;30.76;60.27;98135.50;6275254;22;8891;-73
2021/07/25 10:55:53;;;;;;;;;1.40;1.40;;;;;30.74;60.60;98146.81;6275167;22;9532;-72
2021/07/25 10:58:24;;;;;;;;;0.00;0.00;;;;;30.71;60.32;98153.09;6275810;22;8814;-72
2021/07/25 11:00:57;;;;;;;;;1.00;1.00;;;;;30.67;60.77;98154.34;6277656;22;8791;-72
2021/07/25 11:03:43;;;;;;;;;0.20;0.20;;;;;30.63;60.51;98150.91;6277085;22;8809;-72
2021/07/25 11:06:15;;;;;;;;;0.80;0.80;;;;;30.60;60.75;98160.66;6276975;22;8815;-72
2021/07/25 11:08:47;;;;;;;;;0.60;0.60;;;;;30.55;61.00;98149.44;6277308;22;8801;-72
2021/07/25 11:11:35;;;;;;;;;0.20;0.20;;;;;30.52;60.57;98154.53;6276990;22;8798;-72
2021/07/25 11:14:06;;;;;;;;;1.00;1.00;;;;;30.49;61.20;98158.09;6276931;22;8783;-72
2021/07/25 11:16:44;;;;;;;;;0.40;0.40;;;;;30.48;61.15;98158.50;6276967;22;8877;-72
2021/07/25 11:19:16;;;;;;;;;1.00;1.00;;;;;30.44;60.85;98164.00;6277008;22;8801;-72
2021/07/25 11:21:44;;;;;;;;;0.00;0.00;;;;;30.41;60.92;98166.78;6277038;22;8789;-73
2021/07/25 11:24:36;;;;;;;;;1.00;1.00;;;;;30.38;60.96;98170.34;6277129;22;8872;-72
2021/07/25 11:27:09;;;;;;;;;1.00;1.00;;;;;30.35;61.38;98171.91;6276830;22;9516;-72
2021/07/25 11:29:41;;;;;;;;;0.20;0.20;;;;;30.33;61.57;98182.44;6277190;22;8791;-72
2021/07/25 11:32:36;;;;;;;;;0.00;0.00;;;;;30.30;61.42;98175.13;6276883;22;8787;-72
2021/07/25 11:35:06;;;;;;;;;0.80;0.80;;;;;30.26;61.38;98177.13;6276749;22;8771;-72
2021/07/25 11:37:40;;;;;;;;;1.00;1.00;;;;;30.25;61.34;98180.25;6276617;22;9528;-72
2021/07/25 11:40:10;;;;;;;;;1.00;1.00;;;;;30.22;61.60;98184.56;6277341;22;9511;-72
2021/07/25 11:42:39;;;;;;;;;0.40;0.40;;;;;30.19;61.59;98188.88;6276828;22;8779;-72
2021/07/25 11:45:08;;;;;;;;;1.00;1.00;;;;;30.16;61.61;98195.13;6276629;22;8819;-72
2021/07/25 11:47:36;;;;;;;;;0.20;0.20;;;;;30.12;61.93;98199.84;6276849;22;8794;-72
2021/07/25 11:50:06;;;;;;;;;1.00;1.00;;;;;29.99;61.64;98184.47;6276643;22;8779;-72
2021/07/25 11:52:34;;;;;;;;;0.80;0.80;;;;;30.08;61.64;98195.63;6276546;22;8872;-73
2021/07/25 11:55:03;;;;;;;;;0.60;0.60;;;;;30.06;62.04;98206.16;6276668;22;8779;-72
2021/07/25 11:57:31;;;;;;;;;1.00;1.00;;;;;30.03;61.78;98201.53;6276566;22;8878;-72
2021/07/25 12:00:01;;;;;;;;;1.60;1.60;;;;;29.99;61.92;98200.78;6276789;22;8853;-73